Garcia del Cid — EHUU — position and weather

sailwx.info

Track history (hours):
 
Tides and Currents Weather Stations Pressure Air Temp Water Temp Dewpoint Dewpoint Depression Visibility Wind Speed Wind Dir Waves Ship Positions

Oceanographic research ship Garcia del Cid (Spain)

Detailed information on ship capabilities available from University of Delaware's Ocean Information Center.

Last reported at 2019-Oct-16 00:12 UTC. Time now 2019-Oct-18 23:20 UTC.
Position N 40°56' E 002°28'.

Length 30 m; draft 4.8 m.

Type: Dredging. MMSI: 224799000.

Date/timePositionNaut miles runAvg speedWind from/ knotsBaromVisibWave heightAir tempDewpointWater temp
2019-Oct-16 00:12N 40°56' E 002°28'9 1.7
2019-Oct-15 18:47N 41°05' E 002°31'6 6.1
2019-Oct-15 17:46N 41°10' E 002°26'0 0.5
2019-Oct-15 17:30N 41°10' E 002°25'1 0.7
2019-Oct-15 16:36N 41°10' E 002°25'0 2.9
2019-Oct-15 16:30N 41°10' E 002°25'1 2.7
2019-Oct-15 16:00N 41°10' E 002°23'3 6.8
2019-Oct-15 15:30N 41°12' E 002°19'3 6.3
2019-Oct-15 15:00N 41°14' E 002°16'1 2.6
2019-Oct-15 14:30N 41°16' E 002°17'0 0.7
2019-Oct-15 14:00N 41°16' E 002°17'0 0.9
2019-Oct-15 13:30N 41°16' E 002°18'1 1.5
2019-Oct-15 13:00N 41°15' E 002°19'1 1.5
2019-Oct-15 12:30N 41°15' E 002°20'1 1.4
2019-Oct-15 12:00N 41°15' E 002°20'1 1.1
2019-Oct-15 11:30N 41°15' E 002°20'1 1.8
2019-Oct-15 11:00N 41°15' E 002°19'0 0.6
2019-Oct-15 10:30N 41°15' E 002°18'1 2.7
2019-Oct-15 10:00N 41°16' E 002°17'4 7.6
2019-Oct-15 09:30N 41°19' E 002°13'1 2.0
2019-Oct-15 09:00N 41°19' E 002°13'2 3.9
2019-Oct-15 08:31N 41°21' E 002°13'1 2.3
2019-Oct-15 08:00N 41°22' E 002°12'0 0.5
2019-Oct-15 07:30N 41°22' E 002°12'1 2.5
2019-Oct-15 07:00N 41°22' E 002°14'3 6.8
2019-Oct-15 06:30N 41°20' E 002°17'4 8.0
2019-Oct-15 06:00N 41°17' E 002°21'4 7.8
2019-Oct-15 05:29N 41°13' E 002°24'4 7.7
2019-Oct-15 05:00N 41°11' E 002°28'  
2019-Oct-11 18:31N 38°60' E 003°10'10 4.5
2019-Oct-11 16:23N 39°04' E 002°59'15 8.2
2019-Oct-11 14:29N 39°12' E 002°42'4 8.1
2019-Oct-11 14:01N 39°15' E 002°37'4 8.1
2019-Oct-11 13:30N 39°17' E 002°33'4 8.1
2019-Oct-11 12:59N 39°19' E 002°29'2 4.9
2019-Oct-11 12:29N 39°20' E 002°26'0 0.4
2019-Oct-11 11:56N 39°20' E 002°26'1 1.5
2019-Oct-11 11:25N 39°21' E 002°26'3 6.2
2019-Oct-11 10:59N 39°24' E 002°26'0 0.6
2019-Oct-11 10:16N 39°24' E 002°25'0 0.6
2019-Oct-11 10:00N 39°24' E 002°26'2 4.9
2019-Oct-11 09:30N 39°27' E 002°26'2 2.9
2019-Oct-11 08:51N 39°28' E 002°25'0 0.3
2019-Oct-11 08:11N 39°29' E 002°26'4 6.8
2019-Oct-11 07:36N 39°27' E 002°30'1 8.2
2019-Oct-11 07:30N 39°27' E 002°31'4 7.9
2019-Oct-11 07:00N 39°29' E 002°35'4 8.1
2019-Oct-11 06:31N 39°32' E 002°38'0 0.7
2019-Oct-11 06:01N 39°33' E 002°38'0 0.0
2019-Oct-11 05:30N 39°33' E 002°38'0 0.0
2019-Oct-11 05:00N 39°33' E 002°38'0 0.0
2019-Oct-11 04:30N 39°33' E 002°38'0 0.0
2019-Oct-11 04:00N 39°33' E 002°38'0 0.0
2019-Oct-11 03:31N 39°33' E 002°38'0 0.0
2019-Oct-11 03:00N 39°33' E 002°38'0 0.0
2019-Oct-11 02:30N 39°33' E 002°38'0 0.0
2019-Oct-11 02:00N 39°33' E 002°38'0 0.0
2019-Oct-11 01:30N 39°33' E 002°38'0 0.0
2019-Oct-11 01:00N 39°33' E 002°38'0 0.0
2019-Oct-11 00:30N 39°33' E 002°38'0 0.0
2019-Oct-11 00:00N 39°33' E 002°38'0 0.0
2019-Oct-10 23:30N 39°33' E 002°38'0 0.0
2019-Oct-10 23:01N 39°33' E 002°38'0 0.0
2019-Oct-10 22:30N 39°33' E 002°38'0 0.0
2019-Oct-10 22:01N 39°33' E 002°38'0 0.0
2019-Oct-10 21:30N 39°33' E 002°38'0 0.0
2019-Oct-10 21:00N 39°33' E 002°38'0 0.0
2019-Oct-10 20:30N 39°33' E 002°38'0 0.0
2019-Oct-10 20:00N 39°33' E 002°38'0 0.0
2019-Oct-10 19:31N 39°33' E 002°38'0 0.0
2019-Oct-10 19:00N 39°33' E 002°38'0 0.0
2019-Oct-10 18:30N 39°33' E 002°38'0 0.0
2019-Oct-10 18:00N 39°33' E 002°38'0 0.0
2019-Oct-10 17:30N 39°33' E 002°38'0 0.0
2019-Oct-10 17:00N 39°33' E 002°38'0 0.0
2019-Oct-10 16:30N 39°33' E 002°38'0 0.0
2019-Oct-10 16:00N 39°33' E 002°38'0 0.0
2019-Oct-10 15:30N 39°33' E 002°38'0 0.0
2019-Oct-10 15:01N 39°33' E 002°38'0 0.0
2019-Oct-10 14:30N 39°33' E 002°38'0 0.0
2019-Oct-10 14:00N 39°33' E 002°38'0 0.0
2019-Oct-10 13:30N 39°33' E 002°38'0 0.0
2019-Oct-10 13:00N 39°33' E 002°38'0 0.0
2019-Oct-10 12:30N 39°33' E 002°38'0 0.0
2019-Oct-10 12:00N 39°33' E 002°38'0 0.0
2019-Oct-10 11:31N 39°33' E 002°38'0 0.0
2019-Oct-10 11:00N 39°33' E 002°38'0 0.0
2019-Oct-10 10:31N 39°33' E 002°38'0 0.0
2019-Oct-10 10:00N 39°33' E 002°38'0 0.0
2019-Oct-10 09:30N 39°33' E 002°38'0 0.0
2019-Oct-10 09:00N 39°33' E 002°38'0 0.0
2019-Oct-10 08:30N 39°33' E 002°38'0 0.0
2019-Oct-10 08:00N 39°33' E 002°38'0 0.0
2019-Oct-10 07:31N 39°33' E 002°38'0 0.0
2019-Oct-10 07:00N 39°33' E 002°38'0 0.9
2019-Oct-10 06:30N 39°33' E 002°38'3 5.2
2019-Oct-10 06:01N 39°31' E 002°38'1 1.7
2019-Oct-10 05:30N 39°30' E 002°37'1 1.9
2019-Oct-10 05:00N 39°29' E 002°36'1 2.8
2019-Oct-10 04:30N 39°28' E 002°35'2 3.4
2019-Oct-10 04:00N 39°27' E 002°33'2 4.9
2019-Oct-10 03:30N 39°26' E 002°30'3 6.7
2019-Oct-10 03:00N 39°27' E 002°26'101 2.0
2019-Oct-08 00:01N 41°04' E 001°51'0 6.2
2019-Oct-07 23:58N 41°04' E 001°51'3 6.3
2019-Oct-07 23:30N 41°06' E 001°54'3 6.4
2019-Oct-07 23:00N 41°08' E 001°58'3 6.1
2019-Oct-07 22:30N 41°10' E 002°01'3 6.1
2019-Oct-07 22:00N 41°12' E 002°04'4 8.1
2019-Oct-07 21:30N 41°15' E 002°08'4 8.2
2019-Oct-07 21:00N 41°17' E 002°12'3 6.1
2019-Oct-07 20:30N 41°20' E 002°12'2 4.8
2019-Oct-07 20:00N 41°23' E 002°11'0 0.0
2019-Oct-07 19:30N 41°23' E 002°11'0 0.0
2019-Oct-07 19:00N 41°23' E 002°11'0 0.0
2019-Oct-07 18:30N 41°23' E 002°11'0 0.0
2019-Oct-07 17:51N 41°23' E 002°11'0 0.0
2019-Oct-07 17:30N 41°23' E 002°11'0 0.0
2019-Oct-07 17:00N 41°23' E 002°11'0 0.0
2019-Oct-07 16:27N 41°23' E 002°11'0 0.0
2019-Oct-07 16:00N 41°23' E 002°11'0 0.0
2019-Oct-07 15:15N 41°23' E 002°11'0 0.0
2019-Oct-07 14:54N 41°23' E 002°11'0 0.0
2019-Oct-07 14:30N 41°23' E 002°11'0 0.0
2019-Oct-07 13:51N 41°23' E 002°11'0 0.0
2019-Oct-07 13:24N 41°23' E 002°11'0 0.0
2019-Oct-07 13:00N 41°23' E 002°11'0 0.0
2019-Oct-07 12:30N 41°23' E 002°11'0 0.0
2019-Oct-07 12:00N 41°23' E 002°11'0 0.0
2019-Oct-07 11:30N 41°23' E 002°11'0 0.0
2019-Oct-07 11:00N 41°23' E 002°11'0 0.0
2019-Oct-07 10:30N 41°23' E 002°11'0 0.0
2019-Oct-07 10:00N 41°23' E 002°11'0 0.0
2019-Oct-07 09:30N 41°23' E 002°11'0 0.0
2019-Oct-07 09:00N 41°23' E 002°11'0 0.0
2019-Oct-07 08:30N 41°23' E 002°11'0 0.0
2019-Oct-07 08:00N 41°23' E 002°11'0 0.0
2019-Oct-07 07:30N 41°23' E 002°11'0 0.0
2019-Oct-07 07:00N 41°23' E 002°11'0 0.0
2019-Oct-07 06:27N 41°23' E 002°11'0 0.0
2019-Oct-07 05:57N 41°23' E 002°11'0 0.0
2019-Oct-07 05:30N 41°23' E 002°11'0 0.0
2019-Oct-07 05:00N 41°23' E 002°11'0 0.0
2019-Oct-07 04:30N 41°23' E 002°11'0 0.0
2019-Oct-07 04:00N 41°23' E 002°11'0 0.0
2019-Oct-07 03:30N 41°23' E 002°11'0 0.0
2019-Oct-07 03:00N 41°23' E 002°11'0 0.0
2019-Oct-07 02:00N 41°23' E 002°11'0 0.0
2019-Oct-07 01:30N 41°23' E 002°11'0 0.0
2019-Oct-07 01:00N 41°23' E 002°11'0 0.0
2019-Oct-07 00:30N 41°23' E 002°11'0 0.0
2019-Oct-06 23:57N 41°23' E 002°11'0 0.0
2019-Oct-06 23:30N 41°23' E 002°11'0 0.0
2019-Oct-06 23:00N 41°23' E 002°11'0 0.0
2019-Oct-06 22:30N 41°23' E 002°11'0 0.0
2019-Oct-06 22:00N 41°23' E 002°11'0 0.0
2019-Oct-06 21:27N 41°23' E 002°11'0 0.0
2019-Oct-06 21:00N 41°23' E 002°11'0 0.0
2019-Oct-06 20:30N 41°23' E 002°11'0 0.0
2019-Oct-06 20:00N 41°23' E 002°11'0 0.0
2019-Oct-06 19:30N 41°23' E 002°11'0 0.0
2019-Oct-06 19:00N 41°23' E 002°11'0 0.0
2019-Oct-06 18:29N 41°23' E 002°11'0 0.0
2019-Oct-06 18:00N 41°23' E 002°11'0 0.0
2019-Oct-06 17:29N 41°23' E 002°11'0 0.0
2019-Oct-06 16:59N 41°23' E 002°11'0 0.0
2019-Oct-06 16:30N 41°23' E 002°11'0 0.0
2019-Oct-06 16:00N 41°23' E 002°11'0 0.0
2019-Oct-06 15:30N 41°23' E 002°11'0 0.0
2019-Oct-06 14:59N 41°23' E 002°11'0 0.0
2019-Oct-06 14:29N 41°23' E 002°11'0 0.0
2019-Oct-06 13:59N 41°23' E 002°11'0 0.0
2019-Oct-06 13:29N 41°23' E 002°11'0 0.0
2019-Oct-06 12:59N 41°23' E 002°11'0 0.0
2019-Oct-06 12:29N 41°23' E 002°11'0 0.0
2019-Oct-06 11:56N 41°23' E 002°11'0 0.0
2019-Oct-06 11:29N 41°23' E 002°11'0 0.0
2019-Oct-06 10:59N 41°23' E 002°11'0 0.0
2019-Oct-06 10:29N 41°23' E 002°11'0 0.0
2019-Oct-06 09:59N 41°23' E 002°11'0 0.0
2019-Oct-06 09:29N 41°23' E 002°11'0 0.0
2019-Oct-06 08:59N 41°23' E 002°11'0 0.0
2019-Oct-06 08:29N 41°23' E 002°11'0 0.0
2019-Oct-06 07:59N 41°23' E 002°11'0 0.0
2019-Oct-06 07:29N 41°23' E 002°11'0 0.0
2019-Oct-06 06:59N 41°23' E 002°11'0 0.0
2019-Oct-06 06:29N 41°23' E 002°11'0 0.0
2019-Oct-06 05:59N 41°23' E 002°11'0 0.0
2019-Oct-06 05:29N 41°23' E 002°11'0 0.0
2019-Oct-06 04:59N 41°23' E 002°11'0 0.0
2019-Oct-06 04:29N 41°23' E 002°11'0 0.0
2019-Oct-06 03:59N 41°23' E 002°11'0 0.0
2019-Oct-06 03:11N 41°23' E 002°11'0 0.0
2019-Oct-06 02:56N 41°23' E 002°11'0 0.0
2019-Oct-06 02:29N 41°23' E 002°11'0 0.0
2019-Oct-06 01:59N 41°23' E 002°11'0 0.0
2019-Oct-06 01:29N 41°23' E 002°11'0 0.0
2019-Oct-06 00:59N 41°23' E 002°11'0 0.0
2019-Oct-06 00:29N 41°23' E 002°11'  
Track history (hours):
 
Tides and Currents Weather Stations Pressure Air Temp Water Temp Dewpoint Dewpoint Depression Visibility Wind Speed Wind Dir Waves Ship Positions

Oceanographic research ship Garcia del Cid (Spain)

Detailed information on ship capabilities available from University of Delaware's Ocean Information Center.

Last reported at 2019-Oct-16 00:12 UTC. Time now 2019-Oct-18 23:20 UTC.
Position N 40°56' E 002°28'.

Length 30 m; draft 4.8 m.

Type: Dredging. MMSI: 224799000.

Date/timePositionNaut miles runAvg speedWind from/ knotsBaromVisibWave heightAir tempDewpointWater temp
2019-Oct-16 00:12N 40°56' E 002°28'9 1.7
2019-Oct-15 18:47N 41°05' E 002°31'6 6.1
2019-Oct-15 17:46N 41°10' E 002°26'0 0.5
2019-Oct-15 17:30N 41°10' E 002°25'1 0.7
2019-Oct-15 16:36N 41°10' E 002°25'0 2.9
2019-Oct-15 16:30N 41°10' E 002°25'1 2.7
2019-Oct-15 16:00N 41°10' E 002°23'3 6.8
2019-Oct-15 15:30N 41°12' E 002°19'3 6.3
2019-Oct-15 15:00N 41°14' E 002°16'1 2.6
2019-Oct-15 14:30N 41°16' E 002°17'0 0.7
2019-Oct-15 14:00N 41°16' E 002°17'0 0.9
2019-Oct-15 13:30N 41°16' E 002°18'1 1.5
2019-Oct-15 13:00N 41°15' E 002°19'1 1.5
2019-Oct-15 12:30N 41°15' E 002°20'1 1.4
2019-Oct-15 12:00N 41°15' E 002°20'1 1.1
2019-Oct-15 11:30N 41°15' E 002°20'1 1.8
2019-Oct-15 11:00N 41°15' E 002°19'0 0.6
2019-Oct-15 10:30N 41°15' E 002°18'1 2.7
2019-Oct-15 10:00N 41°16' E 002°17'4 7.6
2019-Oct-15 09:30N 41°19' E 002°13'1 2.0
2019-Oct-15 09:00N 41°19' E 002°13'2 3.9
2019-Oct-15 08:31N 41°21' E 002°13'1 2.3
2019-Oct-15 08:00N 41°22' E 002°12'0 0.5
2019-Oct-15 07:30N 41°22' E 002°12'1 2.5
2019-Oct-15 07:00N 41°22' E 002°14'3 6.8
2019-Oct-15 06:30N 41°20' E 002°17'4 8.0
2019-Oct-15 06:00N 41°17' E 002°21'4 7.8
2019-Oct-15 05:29N 41°13' E 002°24'4 7.7
2019-Oct-15 05:00N 41°11' E 002°28'  
2019-Oct-11 18:31N 38°60' E 003°10'10 4.5
2019-Oct-11 16:23N 39°04' E 002°59'15 8.2
2019-Oct-11 14:29N 39°12' E 002°42'4 8.1
2019-Oct-11 14:01N 39°15' E 002°37'4 8.1
2019-Oct-11 13:30N 39°17' E 002°33'4 8.1
2019-Oct-11 12:59N 39°19' E 002°29'2 4.9
2019-Oct-11 12:29N 39°20' E 002°26'0 0.4
2019-Oct-11 11:56N 39°20' E 002°26'1 1.5
2019-Oct-11 11:25N 39°21' E 002°26'3 6.2
2019-Oct-11 10:59N 39°24' E 002°26'0 0.6
2019-Oct-11 10:16N 39°24' E 002°25'0 0.6
2019-Oct-11 10:00N 39°24' E 002°26'2 4.9
2019-Oct-11 09:30N 39°27' E 002°26'2 2.9
2019-Oct-11 08:51N 39°28' E 002°25'0 0.3
2019-Oct-11 08:11N 39°29' E 002°26'4 6.8
2019-Oct-11 07:36N 39°27' E 002°30'1 8.2
2019-Oct-11 07:30N 39°27' E 002°31'4 7.9
2019-Oct-11 07:00N 39°29' E 002°35'4 8.1
2019-Oct-11 06:31N 39°32' E 002°38'0 0.7
2019-Oct-11 06:01N 39°33' E 002°38'0 0.0
2019-Oct-11 05:30N 39°33' E 002°38'0 0.0
2019-Oct-11 05:00N 39°33' E 002°38'0 0.0
2019-Oct-11 04:30N 39°33' E 002°38'0 0.0
2019-Oct-11 04:00N 39°33' E 002°38'0 0.0
2019-Oct-11 03:31N 39°33' E 002°38'0 0.0
2019-Oct-11 03:00N 39°33' E 002°38'0 0.0
2019-Oct-11 02:30N 39°33' E 002°38'0 0.0
2019-Oct-11 02:00N 39°33' E 002°38'0 0.0
2019-Oct-11 01:30N 39°33' E 002°38'0 0.0
2019-Oct-11 01:00N 39°33' E 002°38'0 0.0
2019-Oct-11 00:30N 39°33' E 002°38'0 0.0
2019-Oct-11 00:00N 39°33' E 002°38'0 0.0
2019-Oct-10 23:30N 39°33' E 002°38'0 0.0
2019-Oct-10 23:01N 39°33' E 002°38'0 0.0
2019-Oct-10 22:30N 39°33' E 002°38'0 0.0
2019-Oct-10 22:01N 39°33' E 002°38'0 0.0
2019-Oct-10 21:30N 39°33' E 002°38'0 0.0
2019-Oct-10 21:00N 39°33' E 002°38'0 0.0
2019-Oct-10 20:30N 39°33' E 002°38'0 0.0
2019-Oct-10 20:00N 39°33' E 002°38'0 0.0
2019-Oct-10 19:31N 39°33' E 002°38'0 0.0
2019-Oct-10 19:00N 39°33' E 002°38'0 0.0
2019-Oct-10 18:30N 39°33' E 002°38'0 0.0
2019-Oct-10 18:00N 39°33' E 002°38'0 0.0
2019-Oct-10 17:30N 39°33' E 002°38'0 0.0
2019-Oct-10 17:00N 39°33' E 002°38'0 0.0
2019-Oct-10 16:30N 39°33' E 002°38'0 0.0
2019-Oct-10 16:00N 39°33' E 002°38'0 0.0
2019-Oct-10 15:30N 39°33' E 002°38'0 0.0
2019-Oct-10 15:01N 39°33' E 002°38'0 0.0
2019-Oct-10 14:30N 39°33' E 002°38'0 0.0
2019-Oct-10 14:00N 39°33' E 002°38'0 0.0
2019-Oct-10 13:30N 39°33' E 002°38'0 0.0
2019-Oct-10 13:00N 39°33' E 002°38'0 0.0
2019-Oct-10 12:30N 39°33' E 002°38'0 0.0
2019-Oct-10 12:00N 39°33' E 002°38'0 0.0
2019-Oct-10 11:31N 39°33' E 002°38'0 0.0
2019-Oct-10 11:00N 39°33' E 002°38'0 0.0
2019-Oct-10 10:31N 39°33' E 002°38'0 0.0
2019-Oct-10 10:00N 39°33' E 002°38'0 0.0
2019-Oct-10 09:30N 39°33' E 002°38'0 0.0
2019-Oct-10 09:00N 39°33' E 002°38'0 0.0
2019-Oct-10 08:30N 39°33' E 002°38'0 0.0
2019-Oct-10 08:00N 39°33' E 002°38'0 0.0
2019-Oct-10 07:31N 39°33' E 002°38'0 0.0
2019-Oct-10 07:00N 39°33' E 002°38'0 0.9
2019-Oct-10 06:30N 39°33' E 002°38'3 5.2
2019-Oct-10 06:01N 39°31' E 002°38'1 1.7
2019-Oct-10 05:30N 39°30' E 002°37'1 1.9
2019-Oct-10 05:00N 39°29' E 002°36'1 2.8
2019-Oct-10 04:30N 39°28' E 002°35'2 3.4
2019-Oct-10 04:00N 39°27' E 002°33'2 4.9
2019-Oct-10 03:30N 39°26' E 002°30'3 6.7
2019-Oct-10 03:00N 39°27' E 002°26'101 2.0
2019-Oct-08 00:01N 41°04' E 001°51'0 6.2
2019-Oct-07 23:58N 41°04' E 001°51'3 6.3
2019-Oct-07 23:30N 41°06' E 001°54'3 6.4
2019-Oct-07 23:00N 41°08' E 001°58'3 6.1
2019-Oct-07 22:30N 41°10' E 002°01'3 6.1
2019-Oct-07 22:00N 41°12' E 002°04'4 8.1
2019-Oct-07 21:30N 41°15' E 002°08'4 8.2
2019-Oct-07 21:00N 41°17' E 002°12'3 6.1
2019-Oct-07 20:30N 41°20' E 002°12'2 4.8
2019-Oct-07 20:00N 41°23' E 002°11'0 0.0
2019-Oct-07 19:30N 41°23' E 002°11'0 0.0
2019-Oct-07 19:00N 41°23' E 002°11'0 0.0
2019-Oct-07 18:30N 41°23' E 002°11'0 0.0
2019-Oct-07 17:51N 41°23' E 002°11'0 0.0
2019-Oct-07 17:30N 41°23' E 002°11'0 0.0
2019-Oct-07 17:00N 41°23' E 002°11'0 0.0
2019-Oct-07 16:27N 41°23' E 002°11'0 0.0
2019-Oct-07 16:00N 41°23' E 002°11'0 0.0
2019-Oct-07 15:15N 41°23' E 002°11'0 0.0
2019-Oct-07 14:54N 41°23' E 002°11'0 0.0
2019-Oct-07 14:30N 41°23' E 002°11'0 0.0
2019-Oct-07 13:51N 41°23' E 002°11'0 0.0
2019-Oct-07 13:24N 41°23' E 002°11'0 0.0
2019-Oct-07 13:00N 41°23' E 002°11'0 0.0
2019-Oct-07 12:30N 41°23' E 002°11'0 0.0
2019-Oct-07 12:00N 41°23' E 002°11'0 0.0
2019-Oct-07 11:30N 41°23' E 002°11'0 0.0
2019-Oct-07 11:00N 41°23' E 002°11'0 0.0
2019-Oct-07 10:30N 41°23' E 002°11'0 0.0
2019-Oct-07 10:00N 41°23' E 002°11'0 0.0
2019-Oct-07 09:30N 41°23' E 002°11'0 0.0
2019-Oct-07 09:00N 41°23' E 002°11'0 0.0
2019-Oct-07 08:30N 41°23' E 002°11'0 0.0
2019-Oct-07 08:00N 41°23' E 002°11'0 0.0
2019-Oct-07 07:30N 41°23' E 002°11'0 0.0
2019-Oct-07 07:00N 41°23' E 002°11'0 0.0
2019-Oct-07 06:27N 41°23' E 002°11'0 0.0
2019-Oct-07 05:57N 41°23' E 002°11'0 0.0
2019-Oct-07 05:30N 41°23' E 002°11'0 0.0
2019-Oct-07 05:00N 41°23' E 002°11'0 0.0
2019-Oct-07 04:30N 41°23' E 002°11'0 0.0
2019-Oct-07 04:00N 41°23' E 002°11'0 0.0
2019-Oct-07 03:30N 41°23' E 002°11'0 0.0
2019-Oct-07 03:00N 41°23' E 002°11'0 0.0
2019-Oct-07 02:00N 41°23' E 002°11'0 0.0
2019-Oct-07 01:30N 41°23' E 002°11'0 0.0
2019-Oct-07 01:00N 41°23' E 002°11'0 0.0
2019-Oct-07 00:30N 41°23' E 002°11'0 0.0
2019-Oct-06 23:57N 41°23' E 002°11'0 0.0
2019-Oct-06 23:30N 41°23' E 002°11'0 0.0
2019-Oct-06 23:00N 41°23' E 002°11'0 0.0
2019-Oct-06 22:30N 41°23' E 002°11'0 0.0
2019-Oct-06 22:00N 41°23' E 002°11'0 0.0
2019-Oct-06 21:27N 41°23' E 002°11'0 0.0
2019-Oct-06 21:00N 41°23' E 002°11'0 0.0
2019-Oct-06 20:30N 41°23' E 002°11'0 0.0
2019-Oct-06 20:00N 41°23' E 002°11'0 0.0
2019-Oct-06 19:30N 41°23' E 002°11'0 0.0
2019-Oct-06 19:00N 41°23' E 002°11'0 0.0
2019-Oct-06 18:29N 41°23' E 002°11'0 0.0
2019-Oct-06 18:00N 41°23' E 002°11'0 0.0
2019-Oct-06 17:29N 41°23' E 002°11'0 0.0
2019-Oct-06 16:59N 41°23' E 002°11'0 0.0
2019-Oct-06 16:30N 41°23' E 002°11'0 0.0
2019-Oct-06 16:00N 41°23' E 002°11'0 0.0
2019-Oct-06 15:30N 41°23' E 002°11'0 0.0
2019-Oct-06 14:59N 41°23' E 002°11'0 0.0
2019-Oct-06 14:29N 41°23' E 002°11'0 0.0
2019-Oct-06 13:59N 41°23' E 002°11'0 0.0
2019-Oct-06 13:29N 41°23' E 002°11'0 0.0
2019-Oct-06 12:59N 41°23' E 002°11'0 0.0
2019-Oct-06 12:29N 41°23' E 002°11'0 0.0
2019-Oct-06 11:56N 41°23' E 002°11'0 0.0
2019-Oct-06 11:29N 41°23' E 002°11'0 0.0
2019-Oct-06 10:59N 41°23' E 002°11'0 0.0
2019-Oct-06 10:29N 41°23' E 002°11'0 0.0
2019-Oct-06 09:59N 41°23' E 002°11'0 0.0
2019-Oct-06 09:29N 41°23' E 002°11'0 0.0
2019-Oct-06 08:59N 41°23' E 002°11'0 0.0
2019-Oct-06 08:29N 41°23' E 002°11'0 0.0
2019-Oct-06 07:59N 41°23' E 002°11'0 0.0
2019-Oct-06 07:29N 41°23' E 002°11'0 0.0
2019-Oct-06 06:59N 41°23' E 002°11'0 0.0
2019-Oct-06 06:29N 41°23' E 002°11'0 0.0
2019-Oct-06 05:59N 41°23' E 002°11'0 0.0
2019-Oct-06 05:29N 41°23' E 002°11'0 0.0
2019-Oct-06 04:59N 41°23' E 002°11'0 0.0
2019-Oct-06 04:29N 41°23' E 002°11'0 0.0
2019-Oct-06 03:59N 41°23' E 002°11'0 0.0
2019-Oct-06 03:11N 41°23' E 002°11'0 0.0
2019-Oct-06 02:56N 41°23' E 002°11'0 0.0
2019-Oct-06 02:29N 41°23' E 002°11'0 0.0
2019-Oct-06 01:59N 41°23' E 002°11'0 0.0
2019-Oct-06 01:29N 41°23' E 002°11'0 0.0
2019-Oct-06 00:59N 41°23' E 002°11'0 0.0
2019-Oct-06 00:29N 41°23' E 002°11'  

Dump ship's entire track history